createdAt,value
2023-04-01T00:01:21.009Z,23.83
2023-04-01T00:03:48.469Z,27.47
2023-04-01T00:06:18.001Z,23.97
2023-04-01T00:08:45.818Z,19.87
2023-04-01T00:11:13.474Z,24.00
2023-04-01T00:13:40.847Z,25.50
2023-04-01T00:16:19.880Z,27.73
2023-04-01T00:18:48.583Z,24.47
2023-04-01T00:21:16.214Z,23.70
2023-04-01T00:23:43.437Z,24.23
2023-04-01T00:26:10.603Z,19.87
2023-04-01T00:28:37.558Z,23.10
2023-04-01T00:31:10.899Z,16.33
2023-04-01T00:33:39.013Z,21.33
2023-04-01T00:36:14.220Z,18.27
2023-04-01T00:38:43.451Z,19.00
2023-04-01T00:41:15.483Z,19.37
2023-04-01T00:43:48.951Z,15.40
2023-04-01T00:46:16.682Z,14.33
2023-04-01T00:48:49.465Z,13.67
2023-04-01T00:51:24.700Z,12.63
2023-04-01T00:53:54.962Z,12.73
2023-04-01T00:56:33.453Z,8.43
2023-04-01T00:59:06.906Z,10.87
2023-04-01T01:01:34.782Z,10.40
2023-04-01T01:04:03.734Z,9.47
2023-04-01T01:06:33.537Z,11.73
2023-04-01T01:09:22.192Z,8.63
2023-04-01T01:12:17.243Z,8.13
2023-04-01T01:14:56.033Z,8.47
2023-04-01T01:17:41.148Z,6.97
2023-04-01T01:20:34.876Z,9.10
2023-04-01T01:23:23.311Z,9.13
2023-04-01T01:26:23.510Z,8.43
2023-04-01T01:29:18.213Z,13.20
2023-04-01T01:32:07.367Z,8.03
2023-04-01T01:35:12.252Z,9.10
2023-04-01T01:37:44.360Z,9.57
2023-04-01T01:40:12.951Z,7.50
2023-04-01T01:42:45.615Z,9.03
2023-04-01T01:45:18.927Z,11.57
2023-04-01T01:47:47.530Z,7.07
2023-04-01T01:50:16.734Z,12.57
2023-04-01T01:52:43.446Z,8.83
2023-04-01T01:55:34.291Z,9.80
2023-04-01T01:58:10.266Z,10.10
2023-04-01T02:00:37.769Z,5.57
2023-04-01T02:03:06.240Z,6.93
2023-04-01T02:05:33.892Z,7.63
2023-04-01T02:08:07.625Z,5.97
2023-04-01T02:10:38.419Z,5.60
2023-04-01T02:13:14.037Z,6.87
2023-04-01T02:15:45.959Z,7.70
2023-04-01T02:18:14.354Z,5.73
2023-04-01T02:20:42.696Z,6.23
2023-04-01T02:23:11.512Z,4.47
2023-04-01T02:25:39.585Z,4.53
2023-04-01T02:28:08.876Z,6.30
2023-04-01T02:30:39.047Z,7.80
2023-04-01T02:33:07.179Z,7.37
2023-04-01T02:35:40.385Z,5.13
2023-04-01T02:38:08.884Z,5.47
2023-04-01T02:40:49.605Z,4.90
2023-04-01T02:43:17.384Z,4.20
2023-04-01T02:45:46.396Z,3.33
2023-04-01T02:48:15.259Z,5.10
2023-04-01T02:50:42.128Z,2.03
2023-04-01T02:53:09.307Z,4.67
2023-04-01T02:55:36.586Z,4.47
2023-04-01T02:58:04.445Z,3.60
2023-04-01T03:00:38.413Z,2.40
2023-04-01T03:03:05.361Z,1.50
2023-04-01T03:05:32.542Z,1.47
2023-04-01T03:07:59.553Z,3.20
2023-04-01T03:10:26.410Z,1.43
2023-04-01T03:12:53.461Z,3.13
2023-04-01T03:15:20.720Z,2.87
2023-04-01T03:17:47.954Z,1.53
2023-04-01T03:20:16.074Z,2.33
2023-04-01T03:22:43.240Z,2.17
2023-04-01T03:25:12.566Z,1.37
2023-04-01T03:27:39.382Z,1.30
2023-04-01T03:30:07.429Z,1.97
2023-04-01T03:32:34.681Z,5.50
2023-04-01T03:35:01.669Z,1.50
2023-04-01T03:37:29.182Z,3.90
2023-04-01T03:40:01.004Z,1.30
2023-04-01T03:42:29.349Z,1.37
2023-04-01T03:44:56.392Z,1.77
2023-04-01T03:47:23.572Z,1.27
2023-04-01T03:49:50.497Z,2.67
2023-04-01T03:52:18.072Z,1.70
2023-04-01T03:54:45.312Z,1.17
2023-04-01T03:57:12.154Z,2.83
2023-04-01T03:59:39.114Z,1.60
2023-04-01T04:02:06.459Z,5.30
2023-04-01T04:04:33.333Z,1.30
2023-04-01T04:07:01.292Z,1.30
2023-04-01T04:09:28.531Z,2.40
2023-04-01T04:11:55.658Z,1.40
2023-04-01T04:14:23.654Z,1.57
2023-04-01T04:16:50.764Z,1.77
2023-04-01T04:19:17.882Z,1.67
2023-04-01T04:21:44.682Z,3.63
2023-04-01T04:24:11.463Z,4.53
2023-04-01T04:26:38.948Z,2.70
2023-04-01T04:29:05.967Z,2.57
2023-04-01T04:31:32.790Z,4.50
2023-04-01T04:34:02.203Z,5.03
2023-04-01T04:36:29.956Z,1.97
2023-04-01T04:39:03.011Z,5.60
2023-04-01T04:41:50.282Z,4.03
2023-04-01T04:44:24.116Z,2.63
2023-04-01T04:46:51.361Z,1.87
2023-04-01T04:49:20.754Z,2.80
2023-04-01T04:51:51.397Z,5.17
2023-04-01T04:54:31.068Z,2.70
2023-04-01T04:57:10.626Z,1.97
2023-04-01T04:59:46.125Z,3.13
2023-04-01T05:02:13.518Z,2.97
2023-04-01T05:04:42.549Z,3.77
2023-04-01T05:07:11.028Z,3.22
2023-04-01T05:09:41.389Z,4.57
2023-04-01T05:12:11.897Z,2.70
2023-04-01T05:14:39.103Z,7.13
2023-04-01T05:17:11.679Z,4.03
2023-04-01T05:19:39.353Z,5.27
2023-04-01T05:22:07.574Z,5.67
2023-04-01T05:24:34.574Z,4.97
2023-04-01T05:27:08.409Z,2.10
2023-04-01T05:29:36.065Z,1.90
2023-04-01T05:32:04.418Z,2.10
2023-04-01T05:34:31.556Z,2.43
2023-04-01T05:37:04.277Z,4.23
2023-04-01T05:39:43.551Z,3.73
2023-04-01T05:42:10.707Z,1.80
2023-04-01T05:44:37.677Z,2.93
2023-04-01T05:47:05.750Z,1.77
2023-04-01T05:49:34.045Z,1.90
2023-04-01T05:52:00.985Z,2.53
2023-04-01T05:54:28.342Z,1.90
2023-04-01T05:56:55.647Z,2.33
2023-04-01T05:59:22.575Z,5.70
2023-04-01T06:01:49.634Z,2.40
2023-04-01T06:04:18.810Z,5.27
2023-04-01T06:06:46.169Z,3.20
2023-04-01T06:09:33.047Z,3.23
2023-04-01T06:12:08.924Z,5.10
2023-04-01T06:14:54.610Z,3.40
2023-04-01T06:17:42.675Z,3.63
2023-04-01T06:20:26.017Z,4.53
2023-04-01T06:23:28.681Z,4.00
2023-04-01T06:26:17.111Z,3.17
2023-04-01T06:29:28.988Z,4.20
2023-04-01T06:31:58.803Z,2.83
2023-04-01T06:34:38.312Z,5.87
2023-04-01T06:37:28.001Z,5.17
2023-04-01T06:40:19.662Z,1.73
2023-04-01T06:43:27.130Z,1.80
2023-04-01T06:46:08.153Z,2.17
2023-04-01T06:48:57.759Z,5.27
2023-04-01T06:51:27.466Z,6.00
2023-04-01T06:54:06.424Z,4.93
2023-04-01T06:56:35.463Z,3.20
2023-04-01T06:59:23.646Z,6.27
2023-04-01T07:02:00.793Z,2.13
2023-04-01T07:04:32.663Z,4.60
2023-04-01T07:07:07.540Z,2.97
2023-04-01T07:09:39.796Z,4.77
2023-04-01T07:12:16.475Z,3.03
2023-04-01T07:14:45.583Z,2.70
2023-04-01T07:17:17.838Z,3.53
2023-04-01T07:19:57.774Z,3.80
2023-04-01T07:22:41.802Z,4.47
2023-04-01T07:25:22.828Z,7.37
2023-04-01T07:27:51.250Z,3.77
2023-04-01T07:30:21.857Z,2.17
2023-04-01T07:33:13.857Z,3.63
2023-04-01T07:35:58.271Z,3.30
2023-04-01T07:38:54.325Z,5.40
2023-04-01T07:41:32.002Z,3.20
2023-04-01T07:44:21.885Z,2.53
2023-04-01T07:47:16.259Z,3.70
2023-04-01T07:50:13.992Z,3.27
2023-04-01T07:53:15.001Z,5.27
2023-04-01T07:56:00.945Z,5.80
2023-04-01T07:58:33.542Z,5.43
2023-04-01T08:01:00.221Z,4.63
2023-04-01T08:03:57.168Z,4.40
2023-04-01T08:06:46.990Z,5.83
2023-04-01T08:09:28.133Z,4.87
2023-04-01T08:12:16.816Z,3.20
2023-04-01T08:14:57.769Z,3.43
2023-04-01T08:17:31.891Z,6.10
2023-04-01T08:20:18.713Z,3.67
2023-04-01T08:23:05.022Z,6.10
2023-04-01T08:25:35.349Z,5.43
2023-04-01T08:28:12.177Z,4.33
2023-04-01T08:30:52.578Z,8.37
2023-04-01T08:33:30.854Z,4.73
2023-04-01T08:36:16.749Z,8.53
2023-04-01T08:38:46.035Z,8.50
2023-04-01T08:42:05.516Z,6.50
2023-04-01T08:45:09.618Z,6.70
2023-04-01T08:48:10.578Z,5.13
2023-04-01T08:50:37.172Z,9.37
2023-04-01T08:53:16.817Z,8.63
2023-04-01T08:56:07.574Z,9.27
2023-04-01T08:59:11.717Z,7.70
2023-04-01T09:01:44.253Z,10.53
2023-04-01T09:04:32.353Z,9.73
2023-04-01T09:07:29.209Z,6.97
2023-04-01T09:10:23.685Z,8.50
2023-04-01T09:13:00.934Z,9.00
2023-04-01T09:15:55.038Z,13.00
2023-04-01T09:18:55.339Z,7.30
2023-04-01T09:21:44.108Z,15.33
2023-04-01T09:24:16.828Z,11.97
2023-04-01T09:26:50.858Z,8.53
2023-04-01T09:29:29.639Z,12.93
2023-04-01T09:32:24.160Z,11.67
2023-04-01T09:35:09.569Z,13.50
2023-04-01T09:37:42.561Z,10.57
2023-04-01T09:40:19.467Z,5.90
2023-04-01T09:43:18.454Z,14.93
2023-04-01T09:45:58.494Z,12.67
2023-04-01T09:49:08.021Z,12.10
2023-04-01T09:52:13.152Z,17.77
2023-04-01T09:54:52.117Z,17.63
2023-04-01T09:57:46.709Z,11.63
2023-04-01T10:00:44.277Z,17.93
2023-04-01T10:03:46.438Z,12.90
2023-04-01T10:06:32.017Z,16.70
2023-04-01T10:09:04.654Z,15.63
2023-04-01T10:12:08.194Z,14.27
2023-04-01T10:14:34.754Z,8.83
2023-04-01T10:17:07.443Z,19.87
2023-04-01T10:19:49.384Z,18.80
2023-04-01T10:22:54.065Z,15.20
2023-04-01T10:25:55.015Z,18.40
2023-04-01T10:28:34.286Z,18.10
2023-04-01T10:31:28.001Z,15.83
2023-04-01T10:34:19.709Z,17.67
2023-04-01T10:36:52.821Z,16.87
2023-04-01T10:39:35.890Z,14.53
2023-04-01T10:42:22.436Z,14.50
2023-04-01T10:45:18.978Z,11.87
2023-04-01T10:48:06.154Z,16.50
2023-04-01T10:50:57.306Z,11.37
2023-04-01T10:54:05.348Z,26.27
2023-04-01T10:56:43.425Z,19.50
2023-04-01T10:59:12.950Z,20.20
2023-04-01T11:02:03.926Z,14.90
2023-04-01T11:05:02.061Z,9.80
2023-04-01T11:07:43.989Z,10.13
2023-04-01T11:10:19.105Z,15.97
2023-04-01T11:12:51.680Z,11.83
2023-04-01T11:15:55.463Z,12.63
2023-04-01T11:18:50.264Z,14.23
2023-04-01T11:22:11.591Z,18.27
2023-04-01T11:25:11.505Z,15.77
2023-04-01T11:28:11.173Z,24.13
2023-04-01T11:30:47.000Z,13.63
2023-04-01T11:33:54.311Z,13.40
2023-04-01T11:36:36.209Z,16.47
2023-04-01T11:39:12.052Z,11.03
2023-04-01T11:41:53.495Z,13.23
2023-04-01T11:44:29.750Z,14.90
2023-04-01T11:47:17.844Z,18.23
2023-04-01T11:50:12.006Z,10.83
2023-04-01T11:53:00.957Z,11.37
2023-04-01T11:55:45.855Z,12.03
2023-04-01T11:58:32.327Z,6.20
2023-04-01T12:01:05.467Z,10.03
2023-04-01T12:03:53.066Z,9.90
2023-04-01T12:06:37.229Z,11.90
2023-04-01T12:09:35.853Z,15.10
2023-04-01T12:12:30.466Z,15.60
2023-04-01T12:15:24.714Z,10.50
2023-04-01T12:18:17.522Z,15.53
2023-04-01T12:20:52.528Z,8.30
2023-04-01T12:23:49.332Z,10.47
2023-04-01T12:26:36.967Z,14.10
2023-04-01T12:29:37.634Z,7.83
2023-04-01T12:32:32.282Z,13.97
2023-04-01T12:35:08.269Z,14.87
2023-04-01T12:37:40.050Z,11.27
2023-04-01T12:40:22.052Z,8.90
2023-04-01T12:43:06.612Z,6.17
2023-04-01T12:45:40.264Z,10.33
2023-04-01T12:48:43.960Z,9.03
2023-04-01T12:51:15.708Z,8.87
2023-04-01T12:54:19.499Z,14.03
2023-04-01T12:57:04.657Z,10.03
2023-04-01T12:59:53.428Z,9.37
2023-04-01T13:02:20.092Z,10.83
2023-04-01T13:05:04.499Z,11.70
2023-04-01T13:07:49.858Z,11.40
2023-04-01T13:10:25.705Z,6.83
2023-04-01T13:13:01.597Z,10.30
2023-04-01T13:15:46.400Z,9.47
2023-04-01T13:19:01.342Z,20.03
2023-04-01T13:22:05.772Z,10.90
2023-04-01T13:24:41.072Z,7.43
2023-04-01T13:27:16.004Z,8.33
2023-04-01T13:29:48.820Z,20.43
2023-04-01T13:32:46.518Z,8.27
2023-04-01T13:35:58.132Z,10.83
2023-04-01T13:38:56.410Z,6.83
2023-04-01T13:41:56.854Z,5.70
2023-04-01T13:44:34.052Z,5.37
2023-04-01T13:47:19.293Z,11.43
2023-04-01T13:50:17.032Z,8.77
2023-04-01T13:53:17.488Z,8.70
2023-04-01T13:56:08.882Z,8.20
2023-04-01T13:58:58.672Z,7.50
2023-04-01T14:01:34.489Z,11.40
2023-04-01T14:04:19.982Z,11.40
2023-04-01T14:06:52.730Z,7.20
2023-04-01T14:09:31.462Z,14.03
2023-04-01T14:12:05.426Z,10.40
2023-04-01T14:15:02.441Z,9.63
2023-04-01T14:17:53.984Z,5.70
2023-04-01T14:20:31.252Z,8.67
2023-04-01T14:23:00.997Z,10.00
2023-04-01T14:25:46.291Z,13.60
2023-04-01T14:28:36.591Z,4.67
2023-04-01T14:31:35.550Z,4.43
2023-04-01T14:34:11.339Z,11.77
2023-04-01T14:36:53.111Z,6.70
2023-04-01T14:39:41.422Z,13.20
2023-04-01T14:42:29.442Z,6.90
2023-04-01T14:44:59.011Z,14.00
2023-04-01T14:48:06.518Z,9.47
2023-04-01T14:50:46.096Z,9.27
2023-04-01T14:53:25.582Z,8.63
2023-04-01T14:55:56.500Z,7.23
2023-04-01T14:58:41.882Z,8.00
2023-04-01T15:01:23.491Z,12.53
2023-04-01T15:04:19.888Z,6.47
2023-04-01T15:07:20.801Z,12.53
2023-04-01T15:09:56.633Z,2.97
2023-04-01T15:12:58.462Z,12.23
2023-04-01T15:15:58.969Z,11.30
2023-04-01T15:18:38.286Z,17.57
2023-04-01T15:21:13.398Z,11.03
2023-04-01T15:23:49.417Z,15.60
2023-04-01T15:26:27.914Z,4.03
2023-04-01T15:29:40.815Z,10.20
2023-04-01T15:32:39.891Z,10.10
2023-04-01T15:35:28.360Z,8.87
2023-04-01T15:38:06.627Z,6.37
2023-04-01T15:41:09.867Z,7.57
2023-04-01T15:43:50.567Z,5.53
2023-04-01T15:46:49.611Z,5.03
2023-04-01T15:49:46.276Z,4.37
2023-04-01T15:52:22.837Z,11.43
2023-04-01T15:55:11.517Z,5.93
2023-04-01T15:58:26.534Z,10.33
2023-04-01T16:01:23.475Z,5.03
2023-04-01T16:04:07.992Z,4.43
2023-04-01T16:06:51.091Z,4.97
2023-04-01T16:09:21.070Z,7.80
2023-04-01T16:12:09.267Z,15.43
2023-04-01T16:14:57.779Z,5.97
2023-04-01T16:17:49.906Z,10.97
2023-04-01T16:20:21.810Z,5.93
2023-04-01T16:22:54.632Z,9.87
2023-04-01T16:25:30.156Z,7.77
2023-04-01T16:28:20.562Z,11.03
2023-04-01T16:30:49.640Z,7.37
2023-04-01T16:33:26.034Z,11.27
2023-04-01T16:36:06.918Z,13.93
2023-04-01T16:38:41.784Z,7.47
2023-04-01T16:41:08.406Z,8.23
2023-04-01T16:43:58.881Z,7.13
2023-04-01T16:46:37.285Z,10.90
2023-04-01T16:49:13.184Z,6.27
2023-04-01T16:51:52.112Z,10.00
2023-04-01T16:54:21.871Z,5.93
2023-04-01T16:56:56.421Z,7.70
2023-04-01T16:59:31.043Z,3.20
2023-04-01T17:02:26.884Z,2.37
2023-04-01T17:05:02.776Z,9.87
2023-04-01T17:07:41.637Z,6.77
2023-04-01T17:10:36.894Z,10.87
2023-04-01T17:13:32.114Z,7.40
2023-04-01T17:16:01.776Z,7.20
2023-04-01T17:19:06.075Z,3.97
2023-04-01T17:22:12.555Z,4.90
2023-04-01T17:24:45.537Z,7.63
2023-04-01T17:27:18.464Z,8.07
2023-04-01T17:30:13.133Z,5.50
2023-04-01T17:32:52.074Z,8.00
2023-04-01T17:35:50.158Z,8.17
2023-04-01T17:38:54.537Z,8.53
2023-04-01T17:41:39.654Z,5.73
2023-04-01T17:44:36.232Z,5.37
2023-04-01T17:47:26.890Z,6.50
2023-04-01T17:50:09.174Z,6.00
2023-04-01T17:52:43.363Z,9.20
2023-04-01T17:55:32.527Z,7.63
2023-04-01T17:58:43.245Z,5.60
2023-04-01T18:01:28.327Z,4.90
2023-04-01T18:04:06.104Z,5.47
2023-04-01T18:07:01.105Z,10.33
2023-04-01T18:09:31.237Z,6.63
2023-04-01T18:12:19.183Z,10.67
2023-04-01T18:15:04.193Z,9.53
2023-04-01T18:18:00.768Z,5.70
2023-04-01T18:20:38.675Z,5.97
2023-04-01T18:23:31.363Z,4.20
2023-04-01T18:26:14.101Z,6.53
2023-04-01T18:28:50.689Z,12.77
2023-04-01T18:31:24.157Z,3.23
2023-04-01T18:33:53.856Z,9.43
2023-04-01T18:36:27.748Z,5.60
2023-04-01T18:38:58.317Z,10.57
2023-04-01T18:41:35.750Z,5.87
2023-04-01T18:44:29.851Z,4.20
2023-04-01T18:47:09.236Z,8.30
2023-04-01T18:49:49.138Z,5.23
2023-04-01T18:52:34.083Z,6.00
2023-04-01T18:55:03.782Z,4.50
2023-04-01T18:57:55.705Z,5.57
2023-04-01T19:00:23.648Z,9.77
2023-04-01T19:03:03.392Z,5.50
2023-04-01T19:05:37.815Z,5.23
2023-04-01T19:08:32.970Z,7.23
2023-04-01T19:11:10.145Z,6.90
2023-04-01T19:13:41.040Z,2.20
2023-04-01T19:16:44.914Z,5.47
2023-04-01T19:19:37.290Z,6.40
2023-04-01T19:22:39.341Z,8.93
2023-04-01T19:25:38.592Z,6.23
2023-04-01T19:28:17.482Z,3.63
2023-04-01T19:30:47.179Z,9.70
2023-04-01T19:33:53.061Z,4.07
2023-04-01T19:37:03.210Z,5.57
2023-04-01T19:39:48.689Z,6.27
2023-04-01T19:42:32.527Z,4.33
2023-04-01T19:45:07.832Z,5.73
2023-04-01T19:47:57.170Z,4.63
2023-04-01T19:50:48.171Z,7.53
2023-04-01T19:53:27.026Z,7.33
2023-04-01T19:56:08.053Z,3.83
2023-04-01T19:58:44.135Z,5.30
2023-04-01T20:01:45.213Z,5.83
2023-04-01T20:04:22.027Z,5.43
2023-04-01T20:07:23.920Z,5.87
2023-04-01T20:10:04.341Z,9.77
2023-04-01T20:12:47.809Z,5.70
2023-04-01T20:15:40.375Z,4.80
2023-04-01T20:18:17.119Z,4.80
2023-04-01T20:20:56.247Z,10.47
2023-04-01T20:23:46.395Z,11.30
2023-04-01T20:26:15.195Z,10.50
2023-04-01T20:28:58.908Z,4.57
2023-04-01T20:31:32.250Z,9.83
2023-04-01T20:34:07.385Z,5.37
2023-04-01T20:37:00.717Z,3.27
2023-04-01T20:39:58.388Z,7.77
2023-04-01T20:43:08.801Z,3.60
2023-04-01T20:45:54.072Z,5.53
2023-04-01T20:48:53.435Z,6.57
2023-04-01T20:51:27.514Z,6.90
2023-04-01T20:54:12.574Z,7.23
2023-04-01T20:56:57.049Z,4.30
2023-04-01T20:59:36.306Z,8.33
2023-04-01T21:02:33.639Z,9.67
2023-04-01T21:05:20.647Z,6.33
2023-04-01T21:07:57.804Z,9.00
2023-04-01T21:10:41.795Z,6.33
2023-04-01T21:13:18.508Z,10.00
2023-04-01T21:16:14.553Z,10.40
2023-04-01T21:19:23.329Z,9.40
2023-04-01T21:22:16.718Z,8.27
2023-04-01T21:24:43.317Z,2.20
2023-04-01T21:27:48.875Z,4.10
2023-04-01T21:30:41.220Z,6.80
2023-04-01T21:33:26.601Z,4.77
2023-04-01T21:36:05.057Z,2.33
2023-04-01T21:39:02.296Z,6.07
2023-04-01T21:42:13.891Z,6.17
2023-04-01T21:45:01.620Z,4.37
2023-04-01T21:47:41.178Z,7.00
2023-04-01T21:50:21.004Z,7.17
2023-04-01T21:53:10.808Z,4.63
2023-04-01T21:55:59.148Z,3.17
2023-04-01T21:58:53.063Z,3.83
2023-04-01T22:01:48.201Z,5.90
2023-04-01T22:04:17.820Z,3.17
2023-04-01T22:06:47.421Z,5.63
2023-04-01T22:09:22.320Z,3.43
2023-04-01T22:11:55.309Z,9.53
2023-04-01T22:14:37.139Z,5.17
2023-04-01T22:17:30.607Z,3.57
2023-04-01T22:20:16.864Z,7.73
2023-04-01T22:23:20.459Z,5.80
2023-04-01T22:25:58.198Z,6.17
2023-04-01T22:28:39.142Z,5.87
2023-04-01T22:31:09.076Z,7.03
2023-04-01T22:34:02.685Z,5.33
2023-04-01T22:36:44.253Z,5.47
2023-04-01T22:39:56.399Z,4.10
2023-04-01T22:42:41.695Z,5.80
2023-04-01T22:45:08.473Z,4.03
2023-04-01T22:48:02.314Z,4.87
2023-04-01T22:50:37.858Z,3.53
2023-04-01T22:53:42.426Z,4.87
2023-04-01T22:56:17.890Z,2.77
2023-04-01T22:58:55.682Z,3.67
2023-04-01T23:01:28.695Z,5.53
2023-04-01T23:03:58.913Z,6.73
2023-04-01T23:06:42.359Z,3.67
2023-04-01T23:09:29.349Z,3.00
2023-04-01T23:12:14.194Z,3.47
2023-04-01T23:14:48.516Z,2.83
2023-04-01T23:17:21.165Z,5.97
2023-04-01T23:20:01.063Z,3.43
2023-04-01T23:22:49.822Z,4.33
2023-04-01T23:25:22.427Z,3.10
2023-04-01T23:28:14.559Z,2.67
2023-04-01T23:30:41.335Z,3.37
2023-04-01T23:33:20.485Z,2.60
2023-04-01T23:36:06.393Z,6.50
2023-04-01T23:38:37.044Z,8.83
2023-04-01T23:41:05.691Z,4.90
2023-04-01T23:43:39.442Z,5.37
2023-04-01T23:46:08.555Z,1.97
2023-04-01T23:48:39.967Z,3.53
2023-04-01T23:51:33.787Z,2.83
2023-04-01T23:54:05.430Z,2.97
2023-04-01T23:56:39.376Z,7.37
2023-04-01T23:59:06.458Z,1.77
